Inverness Airport

EGPE · Scotland, United Kingdom

METAR history EGPE · Inverness Airport

Below you see METARs of the last few days. Select a year to browse through older METARs, from the year 2007 onwards.

March 3, 2024

Time Code Weather Temp. Visibility Ceiling Wind METAR/SPECI
09:50
V
5 °C 10 km+ - 080° 080° 4 kt METAR EGPE 030950Z 08004KT 360V130 9999 FEW016 05/03 Q0998
09:20
V
5 °C 10 km+ - 080° 080° 5 kt METAR EGPE 030920Z 08005KT 9999 FEW015 05/03 Q0998
08:50
V
3 °C 10 km+ - 060° 060° 6 kt METAR EGPE 030850Z 06006KT 9999 FEW015 03/03 Q0998
08:20
V
2 °C 10 km+ - Var Var 1 kt METAR EGPE 030820Z VRB01KT 9999 FEW015 02/02 Q0998
07:50
V
2 °C 10 km+ - 080° 080° 3 kt METAR EGPE 030750Z 08003KT 9999 FEW015 02/01 Q0997
07:20
V
2 °C 10 km+ - 360° 360° 0 kt METAR EGPE 030720Z 00000KT 9999 8000SE FEW008 SCT014 02/01 Q0997
06:50
V
3 °C 10 km+ - 360° 360° 0 kt METAR EGPE 030650Z 00000KT 9999 9000SE FEW010 SCT016 03/02 Q0997
06:20
M
3 °C 10 km+ 2,200 ft Var Var 1 kt METAR EGPE 030620Z VRB01KT 9999 FEW010 BKN022 03/02 Q0997
05:50
M
4 °C 10 km+ 2,300 ft 060° 060° 7 kt METAR EGPE 030550Z AUTO 06007KT 9999 BKN023/// OVC029/// 04/03 Q0996
05:20
M
4 °C 10 km+ 2,900 ft 050° 050° 8 kt METAR EGPE 030520Z AUTO 05008KT 9999 FEW018/// SCT023/// BKN029/// 04/03 Q0996
04:50
M
4 °C 10 km+ 1,300 ft 050° 050° 9 kt METAR EGPE 030450Z AUTO 05009KT 9999 OVC013/// 04/03 Q0997
04:20
M
5 °C 10 km+ 1,400 ft 030° 030° 6 kt METAR EGPE 030420Z AUTO 03006KT 9999 BKN014/// OVC021/// 05/03 Q0997
03:50
M
5 °C 10 km+ 1,600 ft 050° 050° 7 kt METAR EGPE 030350Z AUTO 05007KT 9999 BKN016/// OVC021/// 05/03 Q0997
03:20
M
5 °C 10 km+ 2,200 ft 060° 060° 7 kt METAR EGPE 030320Z AUTO 06007KT 9999 SCT016/// BKN022/// 05/03 Q0997
02:50
M
5 °C 10 km+ 1,800 ft 060° 060° 9 kt METAR EGPE 030250Z AUTO 06009KT 9999 -RA BKN018/// BKN045/// 05/04 Q0997
02:20
M
5 °C 10 km+ 2,000 ft 050° 050° 11 kt METAR EGPE 030220Z AUTO 05011KT 9999 -RA BKN020/// BKN042/// 05/04 Q0997
01:50
M
4 °C 10 km+ 2,200 ft 060° 060° 9 kt METAR EGPE 030150Z AUTO 06009KT 9999 BKN022/// BKN031/// 04/03 Q0997
01:20
M
3 °C 7 km 2,800 ft 060° 060° 8 kt METAR EGPE 030120Z AUTO 06008KT 7000 -RA SCT021/// BKN028/// 03/03 Q0998
00:50
V
0 °C 10 km+ - 070° 070° 3 kt METAR EGPE 030050Z AUTO 07003KT 9999 SCT032/// 00/M00 Q0998
00:20
V
0 °C 10 km+ - 360° 360° 0 kt METAR EGPE 030020Z AUTO 00000KT 9999 FEW035/// M00/M01 Q0998

March 2, 2024

Time Code Weather Temp. Visibility Ceiling Wind METAR/SPECI
23:50
V
1 °C 10 km+ - 070° 070° 4 kt METAR EGPE 022350Z AUTO 07004KT 9999 FEW032/// 01/M00 Q0998
23:20
V
0 °C 10 km+ - 080° 080° 4 kt METAR EGPE 022320Z AUTO 08004KT 9999 FEW024/// 00/M01 Q0998
22:50
V
1 °C 10 km+ - 090° 090° 3 kt METAR EGPE 022250Z AUTO 09003KT 9999 SCT028/// 01/M00 Q0998
22:20
V
-1 °C 10 km+ - 040° 040° 5 kt METAR EGPE 022220Z AUTO 04005KT 9999 NCD M01/M02 Q0998
21:50
V
1 °C 10 km+ - 060° 060° 4 kt METAR EGPE 022150Z AUTO 06004KT 030V100 9999 FEW033/// 01/M01 Q0998
21:20
V
2 °C 10 km+ 3,300 ft 040° 040° 5 kt METAR EGPE 022120Z AUTO 04005KT 9999 SCT028/// BKN033/// 02/M00 Q0998
20:50
V
3 °C 10 km+ - 080° 080° 3 kt METAR EGPE 022050Z AUTO 08003KT 050V110 9999 FEW030/// 03/M00 Q0998
20:20
V
2 °C 10 km+ - 140° 140° 4 kt METAR EGPE 022020Z 14004KT 9999 FEW049 02/M00 Q0998
19:50
V
1 °C 10 km+ - 120° 120° 5 kt METAR EGPE 021950Z 12005KT 9999 FEW049 01/M00 Q0997
19:20
V
2 °C 10 km+ - 100° 100° 6 kt METAR EGPE 021920Z 10006KT 9999 FEW037 02/00 Q0997
18:50
V
2 °C 10 km+ - Var Var 2 kt METAR EGPE 021850Z VRB02KT 9999 FEW037 02/01 Q0997
18:20
V
2 °C 10 km+ - 120° 120° 3 kt METAR EGPE 021820Z 12003KT 9999 FEW025 02/01 Q0996
17:50
V
3 °C 10 km+ - Var Var 1 kt METAR EGPE 021750Z VRB01KT 9999 FEW020 03/01 Q0996
17:20
V
4 °C 10 km+ - 220° 220° 3 kt METAR EGPE 021720Z 22003KT 9999 FEW020 04/02 Q0995
16:50
V
5 °C 10 km+ - 200° 200° 3 kt METAR EGPE 021650Z 20003KT 9999 FEW025 05/02 Q0995
16:20
V
5 °C 10 km+ - 210° 210° 6 kt METAR EGPE 021620Z 21006KT 9999 FEW012 05/02 Q0994
15:50
V
5 °C 10 km+ - 210° 210° 9 kt METAR EGPE 021550Z 21009KT 9999 FEW008 05/02 Q0994
15:20
V
5 °C 10 km+ - 200° 200° 9 kt METAR EGPE 021520Z 20009KT 9999 FEW006 SCT018 05/03 Q0994
14:50
V
5 °C 10 km+ - 210° 210° 9 kt METAR EGPE 021450Z 21009KT 9999 FEW006 SCT015 05/03 Q0994
14:20
V
5 °C 10 km+ - 220° 220° 9 kt METAR EGPE 021420Z 22009KT 9999 9000NW FEW005 SCT010 05/03 Q0994
13:50
V
5 °C 10 km+ - 220° 220° 8 kt METAR EGPE 021350Z 22008KT 9999 9000NW FEW005 SCT011 05/03 Q0994
13:20
V
4 °C 10 km+ - 210° 210° 8 kt METAR EGPE 021320Z 21008KT 9999 8000N FEW006 SCT012 04/03 Q0994
12:50
M
4 °C 10 km+ 1,000 ft 210° 210° 8 kt METAR EGPE 021250Z 21008KT 9999 VCSH FEW004 BKN010 04/02 Q0994
12:20
I
4 °C 10 km+ 900 ft 210° 210° 8 kt METAR EGPE 021220Z 21008KT 9999 VCSH FEW004 BKN009 04/03 Q0994
11:50
I
4 °C 10 km+ 900 ft 200° 200° 7 kt METAR EGPE 021150Z 20007KT 9999 VCSH FEW004 BKN009 04/03 Q0994
11:20
M
4 °C 8 km 1,500 ft 200° 200° 6 kt METAR EGPE 021120Z 20006KT 8000 -RA FEW004 SCT008 BKN015 04/03 Q0994 RERA
10:50
M
4 °C 6 km 1,200 ft 300° 300° 4 kt METAR EGPE 021050Z 30004KT 250V340 6000 RA FEW004 SCT008 BKN012 04/03 Q0994
10:20
M
4 °C 8 km 1,500 ft 340° 340° 9 kt METAR EGPE 021020Z 34009KT 8000 -RA FEW007 BKN015 04/03 Q0994
09:50
M
4 °C 10 km+ 1,800 ft 340° 340° 10 kt METAR EGPE 020950Z 34010KT 9999 7000SE VCSH FEW006 BKN018 04/03 Q0994
09:20
M
4 °C 10 km+ 1,800 ft 340° 340° 12 kt METAR EGPE 020920Z 34012KT 9999 7000SE VCSH FEW005 BKN018 04/02 Q0994
08:50
M
4 °C 10 km+ 1,200 ft 340° 340° 12 kt METAR EGPE 020850Z 34012KT 9999 7000SE VCSH FEW004 BKN012 04/02 Q0995
08:20
M
4 °C 10 km+ 1,500 ft 340° 340° 9 kt METAR EGPE 020820Z 34009KT 9999 8000SE -RA FEW003 SCT009 BKN015 04/02 Q0995
07:50
M
2 °C 10 km+ 1,200 ft 220° 220° 5 kt METAR EGPE 020750Z 22005KT 190V260 9999 -RA SCT008 BKN012 02/01 Q0995
07:20
M
2 °C 10 km+ 1,000 ft 220° 220° 3 kt METAR EGPE 020720Z 22003KT 170V280 9999 -RA BKN010 OVC024 02/01 Q0995
06:50
M
1 °C 10 km+ 1,000 ft 210° 210° 5 kt METAR EGPE 020650Z 21005KT 9999 -RA OVC010 01/01 Q0995
06:20
M
1 °C 10 km+ 1,000 ft 210° 210° 5 kt METAR EGPE 020620Z 21005KT 9999 -RASN OVC010 01/01 Q0995
05:50
M
1 °C 10 km+ 1,000 ft 220° 220° 4 kt METAR EGPE 020550Z 22004KT 9999 -RASN OVC010 01/01 Q0995
05:20
I
1 °C 10 km+ 700 ft 200° 200° 5 kt METAR EGPE 020520Z 20005KT 9999 -RA BKN007 OVC012 01/01 Q0996
04:50
M
1 °C 10 km+ 1,700 ft 190° 190° 3 kt METAR EGPE 020450Z 19003KT 9999 -RA FEW011 BKN017 OVC023 01/01 Q0996
04:20
V
1 °C 10 km+ 3,200 ft 210° 210° 5 kt METAR EGPE 020420Z 21005KT 9999 OVC032 01/00 Q0995
03:50
V
-1 °C 10 km+ 3,200 ft 220° 220° 3 kt METAR EGPE 020350Z 22003KT 9999 OVC032 M01/M01 Q0995
03:20
V
0 °C 10 km+ 4,400 ft 210° 210° 2 kt METAR EGPE 020320Z 21002KT 9999 SCT030 BKN044 00/M01 Q0995
02:50
V
-1 °C 10 km+ - 170° 170° 1 kt METAR EGPE 020250Z 17001KT 9999 SCT033 M01/M01 Q0995
02:20
V
0 °C 10 km+ - 200° 200° 1 kt METAR EGPE 020220Z 20001KT 9999 FEW024 00/M01 Q0996
01:50
M
2 °C 10 km+ 2,700 ft Var Var 1 kt METAR EGPE 020150Z AUTO VRB01KT 9999 SCT022/// BKN027/// BKN036/// 02/01 Q0996
01:20
V
3 °C 10 km+ 3,100 ft 360° 360° 0 kt METAR EGPE 020120Z AUTO 00000KT 9999 SCT020/// BKN031/// 03/01 Q0996
00:50
M
3 °C 10 km+ 1,600 ft Var Var 1 kt METAR EGPE 020050Z AUTO VRB01KT 9999 BKN016/// OVC036/// 03/02 Q0996
00:20
M
2 °C 10 km+ 1,700 ft 360° 360° 0 kt METAR EGPE 020020Z AUTO 00000KT 9999 OVC017/// 02/01 Q0996

March 1, 2024

Time Code Weather Temp. Visibility Ceiling Wind METAR/SPECI
23:50
M
2 °C 10 km+ 1,900 ft Var Var 2 kt METAR EGPE 012350Z AUTO VRB02KT 9999 BKN019/// BKN026/// 02/01 Q0996
23:20
M
2 °C 10 km+ 1,600 ft 170° 170° 2 kt METAR EGPE 012320Z AUTO 17002KT 9999 BKN016/// OVC022/// 02/01 Q0996
22:50
M
2 °C 10 km+ 1,200 ft Var Var 1 kt METAR EGPE 012250Z AUTO VRB01KT 9999 BKN012/// OVC019/// 02/01 Q0996
22:20
M
2 °C 10 km+ 1,300 ft 190° 190° 1 kt METAR EGPE 012220Z AUTO 19001KT 9999 BKN013/// OVC024/// 02/01 Q0996
21:50
M
2 °C 10 km+ 1,300 ft 250° 250° 1 kt METAR EGPE 012150Z AUTO 25001KT 9999 BKN013/// BKN018/// OVC039/// 02/01 Q0996
21:20
M
2 °C 10 km+ 1,300 ft Var Var 1 kt METAR EGPE 012120Z VRB01KT 9999 -RA BKN013 02/01 Q0996
20:50
M
1 °C 10 km+ 1,400 ft 360° 360° 0 kt METAR EGPE 012050Z 00000KT 9999 -RA BKN014 01/00 Q0996
20:20
V
1 °C 10 km+ 4,700 ft 130° 130° 2 kt METAR EGPE 012020Z 13002KT 9999 FEW020 BKN047 01/M00 Q0996
19:50
V
1 °C 10 km+ 4,300 ft 360° 360° 0 kt METAR EGPE 011950Z 00000KT 9999 FEW016 BKN043 01/M00 Q0996
19:20
V
1 °C 10 km+ - 360° 360° 0 kt METAR EGPE 011920Z 00000KT 9999 FEW016 SCT044 01/00 Q0996
18:50
V
1 °C 10 km+ - 360° 360° 0 kt METAR EGPE 011850Z 00000KT 9999 FEW016 SCT044 01/M00 Q0996
18:20
V
2 °C 10 km+ - 090° 090° 3 kt METAR EGPE 011820Z 09003KT 9999 FEW016 02/00 Q0996
17:50
V
3 °C 10 km+ - 040° 040° 7 kt METAR EGPE 011750Z 04007KT 9999 FEW016 03/01 Q0995
17:20
V
4 °C 10 km+ - 050° 050° 7 kt METAR EGPE 011720Z 05007KT 9999 FEW020 04/01 Q0995
16:50
V
6 °C 10 km+ - 040° 040° 7 kt METAR EGPE 011650Z 04007KT 9999 FEW020 06/01 Q0995
16:20
V
6 °C 10 km+ - 050° 050° 5 kt METAR EGPE 011620Z 05005KT 9999 FEW020 FEW025CB 06/M00 Q0994
15:50
V
7 °C 10 km+ - 050° 050° 5 kt METAR EGPE 011550Z 05005KT 9999 FEW015 FEW025CB 07/M01 Q0994
15:20
V
7 °C 10 km+ - 060° 060° 5 kt METAR EGPE 011520Z 06005KT 9999 FEW015 FEW025CB 07/M01 Q0994
14:50
V
7 °C 10 km+ - 090° 090° 4 kt METAR EGPE 011450Z 09004KT 9999 FEW015 FEW030CB 07/M01 Q0994
14:20
V
7 °C 10 km+ - Var Var 2 kt METAR EGPE 011420Z VRB02KT 9999 FEW010 FEW034CB 07/M00 Q0995
13:50
V
7 °C 10 km+ - Var Var 1 kt METAR EGPE 011350Z VRB01KT 9999 FEW012 FEW034CB 07/01 Q0995
13:20
V
7 °C 10 km+ - Var Var 1 kt METAR EGPE 011320Z VRB01KT 9999 FEW012 FEW034CB 07/01 Q0995
12:50
V
6 °C 10 km+ - Var Var 1 kt METAR EGPE 011250Z VRB01KT 9999 FEW012 FEW036CB 06/01 Q0995
12:20
V
7 °C 10 km+ - 360° 360° 0 kt METAR EGPE 011220Z 00000KT 9999 FEW012 FEW036CB 07/00 Q0995
11:50
V
6 °C 10 km+ - Var Var 2 kt METAR EGPE 011150Z VRB02KT 9999 FEW012 FEW024CB 06/00 Q0995
11:20
V
5 °C 10 km+ - 230° 230° 4 kt METAR EGPE 011120Z 23004KT 9999 FEW012CB 05/01 Q0995
10:50
V
4 °C 10 km+ - 240° 240° 5 kt METAR EGPE 011050Z 24005KT 9999 FEW012CB 04/00 Q0995
10:20
V
3 °C 10 km+ - 230° 230° 5 kt METAR EGPE 011020Z 23005KT 9999 NSC 03/M00 Q0995
09:50
V
2 °C 10 km+ - 230° 230° 5 kt METAR EGPE 010950Z 23005KT 9999 NSC 02/M01 Q0995
09:20
V
1 °C 10 km+ - 230° 230° 3 kt METAR EGPE 010920Z 23003KT 9999 NSC 01/M01 Q0995
08:50
V
0 °C 10 km+ - 230° 230° 1 kt METAR EGPE 010850Z 23001KT 9999 FEW015 M00/M02 Q0995
08:20
V
-1 °C 10 km+ - 360° 360° 0 kt METAR EGPE 010820Z 00000KT 9999 FEW012 M01/M03 Q0995
07:50
V
-3 °C 10 km+ - 360° 360° 0 kt METAR EGPE 010750Z 00000KT 9999 FEW015 M03/M04 Q0995
07:20
V
-4 °C 10 km+ - 360° 360° 0 kt METAR EGPE 010720Z 00000KT 9999 FEW012 M04/M05 Q0994
06:50
V
-3 °C 10 km+ - 360° 360° 0 kt METAR EGPE 010650Z 00000KT CAVOK M03/M04 Q0994
06:20
V
-4 °C 10 km+ - 360° 360° 0 kt METAR EGPE 010620Z 00000KT CAVOK M04/M05 Q0994
05:50
V
-3 °C 10 km+ - 360° 360° 0 kt METAR EGPE 010550Z 00000KT CAVOK M03/M04 Q0994